Terminal Aerodrome Forecast
Issued by NWS Rapid City, SD

Home | Current Version | Previous Version | Text Only | Print | Product List | Glossary Off
Versions: 1 2 3 4 5 6 7 8 9 10 11 12 13 14 15 16 17 18 19 20 21 22 23 24 25 26 27 28

075
FTUS43 KUNR 292320
TAFRAP
TAF
KRAP 292320Z 3000/3024 20007KT P6SM VCTS SCT060CB BKN150
     FM300100 17007KT P6SM SCT070
     FM301100 24005KT P6SM SKC
     FM301400 17012KT P6SM SCT250=

USA.gov is the U.S. government's official web portal to all federal, state and local government web resources and services.